sensor_id;sensor_type;location;lat;lon;timestamp;P1;durP1;ratioP1;P2;durP2;ratioP2
37049;SDS011;22958;51.232;6.826;2023-07-31T00:01:55;22.90;;;5.50;;
37049;SDS011;22958;51.232;6.826;2023-07-31T00:04:21;20.77;;;5.60;;
37049;SDS011;22958;51.232;6.826;2023-07-31T00:06:46;18.13;;;5.90;;
37049;SDS011;22958;51.232;6.826;2023-07-31T00:09:12;18.97;;;5.97;;
37049;SDS011;22958;51.232;6.826;2023-07-31T00:11:37;20.83;;;5.90;;
37049;SDS011;22958;51.232;6.826;2023-07-31T00:14:03;21.80;;;5.43;;
37049;SDS011;22958;51.232;6.826;2023-07-31T00:16:29;15.50;;;5.90;;
37049;SDS011;22958;51.232;6.826;2023-07-31T00:18:54;18.90;;;5.77;;
37049;SDS011;22958;51.232;6.826;2023-07-31T00:21:20;19.57;;;5.57;;
37049;SDS011;22958;51.232;6.826;2023-07-31T00:23:45;24.60;;;5.40;;
37049;SDS011;22958;51.232;6.826;2023-07-31T00:26:11;19.57;;;5.50;;
37049;SDS011;22958;51.232;6.826;2023-07-31T00:28:36;18.87;;;4.77;;
37049;SDS011;22958;51.232;6.826;2023-07-31T00:31:02;16.13;;;6.00;;
37049;SDS011;22958;51.232;6.826;2023-07-31T00:33:28;20.02;;;5.93;;
37049;SDS011;22958;51.232;6.826;2023-07-31T00:35:54;25.45;;;5.55;;
37049;SDS011;22958;51.232;6.826;2023-07-31T00:38:20;16.90;;;5.13;;
37049;SDS011;22958;51.232;6.826;2023-07-31T00:40:45;20.10;;;5.13;;
37049;SDS011;22958;51.232;6.826;2023-07-31T00:43:11;13.70;;;4.80;;
37049;SDS011;22958;51.232;6.826;2023-07-31T00:45:36;22.33;;;5.50;;
37049;SDS011;22958;51.232;6.826;2023-07-31T00:48:02;23.70;;;5.00;;
37049;SDS011;22958;51.232;6.826;2023-07-31T00:50:31;15.88;;;5.43;;
37049;SDS011;22958;51.232;6.826;2023-07-31T00:52:56;16.07;;;5.10;;
37049;SDS011;22958;51.232;6.826;2023-07-31T00:55:22;16.58;;;5.70;;
37049;SDS011;22958;51.232;6.826;2023-07-31T00:57:48;19.90;;;5.60;;
37049;SDS011;22958;51.232;6.826;2023-07-31T01:00:15;17.17;;;6.28;;
37049;SDS011;22958;51.232;6.826;2023-07-31T01:02:41;14.13;;;4.30;;
37049;SDS011;22958;51.232;6.826;2023-07-31T01:05:06;20.10;;;5.97;;
37049;SDS011;22958;51.232;6.826;2023-07-31T01:12:38;20.88;;;5.18;;
37049;SDS011;22958;51.232;6.826;2023-07-31T01:15:08;18.40;;;5.45;;
37049;SDS011;22958;51.232;6.826;2023-07-31T01:17:37;16.55;;;4.40;;
37049;SDS011;22958;51.232;6.826;2023-07-31T01:20:04;17.00;;;4.68;;
37049;SDS011;22958;51.232;6.826;2023-07-31T01:22:54;16.90;;;5.05;;
37049;SDS011;22958;51.232;6.826;2023-07-31T01:28:40;17.63;;;4.82;;
37049;SDS011;22958;51.232;6.826;2023-07-31T01:31:13;17.73;;;5.20;;
37049;SDS011;22958;51.232;6.826;2023-07-31T01:33:41;17.50;;;4.80;;
37049;SDS011;22958;51.232;6.826;2023-07-31T01:36:07;21.23;;;5.18;;
37049;SDS011;22958;51.232;6.826;2023-07-31T01:38:33;14.73;;;4.38;;
37049;SDS011;22958;51.232;6.826;2023-07-31T01:40:59;13.30;;;4.93;;
37049;SDS011;22958;51.232;6.826;2023-07-31T01:43:24;17.93;;;4.83;;
37049;SDS011;22958;51.232;6.826;2023-07-31T01:45:50;18.00;;;5.50;;
37049;SDS011;22958;51.232;6.826;2023-07-31T01:48:15;12.90;;;4.67;;
37049;SDS011;22958;51.232;6.826;2023-07-31T01:50:41;19.87;;;5.00;;
37049;SDS011;22958;51.232;6.826;2023-07-31T01:53:06;24.50;;;5.47;;
37049;SDS011;22958;51.232;6.826;2023-07-31T01:55:32;26.03;;;6.60;;
37049;SDS011;22958;51.232;6.826;2023-07-31T01:57:57;10.77;;;4.63;;
37049;SDS011;22958;51.232;6.826;2023-07-31T02:00:23;18.77;;;4.93;;
37049;SDS011;22958;51.232;6.826;2023-07-31T02:02:48;20.83;;;5.77;;
37049;SDS011;22958;51.232;6.826;2023-07-31T02:05:14;18.50;;;5.70;;
37049;SDS011;22958;51.232;6.826;2023-07-31T02:07:39;14.93;;;5.20;;
37049;SDS011;22958;51.232;6.826;2023-07-31T02:10:05;27.13;;;5.83;;
37049;SDS011;22958;51.232;6.826;2023-07-31T02:12:31;26.30;;;5.60;;
37049;SDS011;22958;51.232;6.826;2023-07-31T02:14:57;22.85;;;5.20;;
37049;SDS011;22958;51.232;6.826;2023-07-31T02:17:22;22.57;;;5.13;;
37049;SDS011;22958;51.232;6.826;2023-07-31T02:19:48;12.53;;;4.63;;
37049;SDS011;22958;51.232;6.826;2023-07-31T02:22:13;24.80;;;5.87;;
37049;SDS011;22958;51.232;6.826;2023-07-31T02:24:39;16.93;;;5.90;;
37049;SDS011;22958;51.232;6.826;2023-07-31T02:27:05;21.47;;;5.13;;
37049;SDS011;22958;51.232;6.826;2023-07-31T02:29:30;15.83;;;5.03;;
37049;SDS011;22958;51.232;6.826;2023-07-31T02:31:56;16.63;;;4.80;;
37049;SDS011;22958;51.232;6.826;2023-07-31T02:34:21;15.47;;;4.90;;
37049;SDS011;22958;51.232;6.826;2023-07-31T02:36:47;24.27;;;5.63;;
37049;SDS011;22958;51.232;6.826;2023-07-31T02:39:12;18.33;;;5.27;;
37049;SDS011;22958;51.232;6.826;2023-07-31T02:41:38;21.40;;;5.63;;
37049;SDS011;22958;51.232;6.826;2023-07-31T02:44:03;25.20;;;5.53;;
37049;SDS011;22958;51.232;6.826;2023-07-31T02:46:29;15.53;;;4.90;;
37049;SDS011;22958;51.232;6.826;2023-07-31T02:48:54;20.67;;;5.27;;
37049;SDS011;22958;51.232;6.826;2023-07-31T02:51:20;15.57;;;5.23;;
37049;SDS011;22958;51.232;6.826;2023-07-31T02:53:46;25.85;;;5.10;;
37049;SDS011;22958;51.232;6.826;2023-07-31T02:56:12;17.67;;;5.10;;
37049;SDS011;22958;51.232;6.826;2023-07-31T02:58:38;21.10;;;5.70;;
37049;SDS011;22958;51.232;6.826;2023-07-31T03:01:03;23.73;;;5.37;;
37049;SDS011;22958;51.232;6.826;2023-07-31T03:03:29;12.93;;;4.77;;
37049;SDS011;22958;51.232;6.826;2023-07-31T03:05:55;21.97;;;5.50;;
37049;SDS011;22958;51.232;6.826;2023-07-31T03:08:20;20.47;;;5.90;;
37049;SDS011;22958;51.232;6.826;2023-07-31T03:10:46;17.30;;;5.20;;
37049;SDS011;22958;51.232;6.826;2023-07-31T03:13:11;16.67;;;4.47;;
37049;SDS011;22958;51.232;6.826;2023-07-31T03:15:37;17.07;;;5.17;;
37049;SDS011;22958;51.232;6.826;2023-07-31T03:18:02;14.73;;;5.13;;
37049;SDS011;22958;51.232;6.826;2023-07-31T03:20:28;12.57;;;4.50;;
37049;SDS011;22958;51.232;6.826;2023-07-31T03:22:53;19.10;;;5.17;;
37049;SDS011;22958;51.232;6.826;2023-07-31T03:25:19;18.00;;;5.03;;
37049;SDS011;22958;51.232;6.826;2023-07-31T03:27:44;16.80;;;5.33;;
37049;SDS011;22958;51.232;6.826;2023-07-31T03:30:10;18.33;;;4.97;;
37049;SDS011;22958;51.232;6.826;2023-07-31T03:32:35;13.52;;;4.35;;
37049;SDS011;22958;51.232;6.826;2023-07-31T03:35:01;15.60;;;5.53;;
37049;SDS011;22958;51.232;6.826;2023-07-31T03:37:27;13.87;;;4.63;;
37049;SDS011;22958;51.232;6.826;2023-07-31T03:39:52;17.43;;;5.00;;
37049;SDS011;22958;51.232;6.826;2023-07-31T03:42:18;16.03;;;5.50;;
37049;SDS011;22958;51.232;6.826;2023-07-31T03:44:43;16.23;;;4.83;;
37049;SDS011;22958;51.232;6.826;2023-07-31T03:47:09;14.33;;;5.53;;
37049;SDS011;22958;51.232;6.826;2023-07-31T03:49:34;20.73;;;4.50;;
37049;SDS011;22958;51.232;6.826;2023-07-31T03:52:00;23.27;;;5.00;;
37049;SDS011;22958;51.232;6.826;2023-07-31T03:54:25;18.33;;;5.63;;
37049;SDS011;22958;51.232;6.826;2023-07-31T03:56:51;13.80;;;4.57;;
37049;SDS011;22958;51.232;6.826;2023-07-31T03:59:16;18.77;;;5.50;;
37049;SDS011;22958;51.232;6.826;2023-07-31T04:01:42;16.50;;;5.63;;
37049;SDS011;22958;51.232;6.826;2023-07-31T04:04:07;22.43;;;5.80;;
37049;SDS011;22958;51.232;6.826;2023-07-31T04:06:33;19.03;;;5.43;;
37049;SDS011;22958;51.232;6.826;2023-07-31T04:08:58;19.73;;;5.33;;
37049;SDS011;22958;51.232;6.826;2023-07-31T04:11:24;26.97;;;5.33;;
37049;SDS011;22958;51.232;6.826;2023-07-31T04:13:49;15.83;;;6.03;;
37049;SDS011;22958;51.232;6.826;2023-07-31T04:16:15;17.67;;;6.23;;
37049;SDS011;22958;51.232;6.826;2023-07-31T04:18:40;16.40;;;5.10;;
37049;SDS011;22958;51.232;6.826;2023-07-31T04:21:06;15.27;;;5.47;;
37049;SDS011;22958;51.232;6.826;2023-07-31T04:23:31;22.30;;;5.73;;
37049;SDS011;22958;51.232;6.826;2023-07-31T04:25:57;13.53;;;4.80;;
37049;SDS011;22958;51.232;6.826;2023-07-31T04:28:22;16.00;;;5.17;;
37049;SDS011;22958;51.232;6.826;2023-07-31T04:30:48;15.70;;;5.60;;
37049;SDS011;22958;51.232;6.826;2023-07-31T04:33:13;16.23;;;5.20;;
37049;SDS011;22958;51.232;6.826;2023-07-31T04:35:39;25.47;;;6.40;;
37049;SDS011;22958;51.232;6.826;2023-07-31T04:38:04;14.43;;;5.43;;
37049;SDS011;22958;51.232;6.826;2023-07-31T04:40:30;13.83;;;5.30;;
37049;SDS011;22958;51.232;6.826;2023-07-31T04:42:55;19.67;;;5.80;;
37049;SDS011;22958;51.232;6.826;2023-07-31T04:45:21;13.87;;;5.47;;
37049;SDS011;22958;51.232;6.826;2023-07-31T04:47:47;16.60;;;5.77;;
37049;SDS011;22958;51.232;6.826;2023-07-31T04:50:12;21.13;;;5.47;;
37049;SDS011;22958;51.232;6.826;2023-07-31T04:52:38;15.77;;;5.13;;
37049;SDS011;22958;51.232;6.826;2023-07-31T04:55:03;14.97;;;5.50;;
37049;SDS011;22958;51.232;6.826;2023-07-31T04:57:29;12.20;;;5.33;;
37049;SDS011;22958;51.232;6.826;2023-07-31T04:59:54;14.20;;;5.57;;
37049;SDS011;22958;51.232;6.826;2023-07-31T05:02:20;19.70;;;5.97;;
37049;SDS011;22958;51.232;6.826;2023-07-31T05:04:46;13.00;;;5.45;;
37049;SDS011;22958;51.232;6.826;2023-07-31T05:07:11;16.00;;;5.30;;
37049;SDS011;22958;51.232;6.826;2023-07-31T05:09:37;17.83;;;5.73;;
37049;SDS011;22958;51.232;6.826;2023-07-31T05:14:30;15.25;;;6.20;;
37049;SDS011;22958;51.232;6.826;2023-07-31T05:16:55;20.93;;;6.13;;
37049;SDS011;22958;51.232;6.826;2023-07-31T05:19:21;13.07;;;5.37;;
37049;SDS011;22958;51.232;6.826;2023-07-31T05:21:46;15.53;;;5.90;;
37049;SDS011;22958;51.232;6.826;2023-07-31T05:24:12;15.43;;;5.53;;
37049;SDS011;22958;51.232;6.826;2023-07-31T05:26:37;13.93;;;5.87;;
37049;SDS011;22958;51.232;6.826;2023-07-31T05:29:03;14.57;;;5.20;;
37049;SDS011;22958;51.232;6.826;2023-07-31T05:31:28;13.47;;;5.43;;
37049;SDS011;22958;51.232;6.826;2023-07-31T05:33:54;12.87;;;5.43;;
37049;SDS011;22958;51.232;6.826;2023-07-31T05:36:19;17.20;;;5.77;;
37049;SDS011;22958;51.232;6.826;2023-07-31T05:38:45;17.03;;;6.27;;
37049;SDS011;22958;51.232;6.826;2023-07-31T05:41:11;14.97;;;5.70;;
37049;SDS011;22958;51.232;6.826;2023-07-31T05:43:37;25.77;;;7.50;;
37049;SDS011;22958;51.232;6.826;2023-07-31T05:46:03;20.43;;;6.00;;
37049;SDS011;22958;51.232;6.826;2023-07-31T05:48:28;13.70;;;6.13;;
37049;SDS011;22958;51.232;6.826;2023-07-31T05:50:54;20.70;;;5.78;;
37049;SDS011;22958;51.232;6.826;2023-07-31T05:53:20;16.20;;;5.77;;
37049;SDS011;22958;51.232;6.826;2023-07-31T05:55:45;15.87;;;5.13;;
37049;SDS011;22958;51.232;6.826;2023-07-31T05:58:11;13.73;;;5.57;;
37049;SDS011;22958;51.232;6.826;2023-07-31T06:00:36;19.57;;;5.40;;
37049;SDS011;22958;51.232;6.826;2023-07-31T06:03:02;16.00;;;6.17;;
37049;SDS011;22958;51.232;6.826;2023-07-31T06:05:27;15.70;;;5.80;;
37049;SDS011;22958;51.232;6.826;2023-07-31T06:07:54;13.38;;;5.13;;
37049;SDS011;22958;51.232;6.826;2023-07-31T06:10:20;12.10;;;5.17;;
37049;SDS011;22958;51.232;6.826;2023-07-31T06:12:46;12.10;;;4.90;;
37049;SDS011;22958;51.232;6.826;2023-07-31T06:15:11;12.20;;;4.77;;
37049;SDS011;22958;51.232;6.826;2023-07-31T06:17:37;15.63;;;5.57;;
37049;SDS011;22958;51.232;6.826;2023-07-31T06:20:03;16.23;;;5.80;;
37049;SDS011;22958;51.232;6.826;2023-07-31T06:22:31;11.20;;;4.85;;
37049;SDS011;22958;51.232;6.826;2023-07-31T06:24:57;11.63;;;5.83;;
37049;SDS011;22958;51.232;6.826;2023-07-31T06:27:23;13.82;;;5.90;;
37049;SDS011;22958;51.232;6.826;2023-07-31T06:29:49;17.83;;;5.97;;
37049;SDS011;22958;51.232;6.826;2023-07-31T06:32:14;12.23;;;5.83;;
37049;SDS011;22958;51.232;6.826;2023-07-31T06:34:40;12.53;;;5.07;;
37049;SDS011;22958;51.232;6.826;2023-07-31T06:37:05;16.73;;;5.60;;
37049;SDS011;22958;51.232;6.826;2023-07-31T06:39:31;13.27;;;5.57;;
37049;SDS011;22958;51.232;6.826;2023-07-31T06:41:56;22.57;;;5.40;;
37049;SDS011;22958;51.232;6.826;2023-07-31T06:44:22;14.00;;;5.87;;
37049;SDS011;22958;51.232;6.826;2023-07-31T06:46:47;15.90;;;6.70;;
37049;SDS011;22958;51.232;6.826;2023-07-31T06:49:13;14.43;;;5.93;;
37049;SDS011;22958;51.232;6.826;2023-07-31T06:51:40;13.13;;;5.55;;
37049;SDS011;22958;51.232;6.826;2023-07-31T06:54:05;14.57;;;5.20;;
37049;SDS011;22958;51.232;6.826;2023-07-31T06:56:31;10.20;;;5.43;;
37049;SDS011;22958;51.232;6.826;2023-07-31T06:58:57;11.77;;;5.43;;
37049;SDS011;22958;51.232;6.826;2023-07-31T07:01:22;18.90;;;5.83;;
37049;SDS011;22958;51.232;6.826;2023-07-31T07:03:48;15.53;;;5.27;;
37049;SDS011;22958;51.232;6.826;2023-07-31T07:06:15;12.90;;;5.57;;
37049;SDS011;22958;51.232;6.826;2023-07-31T07:08:41;21.10;;;6.10;;
37049;SDS011;22958;51.232;6.826;2023-07-31T07:11:07;12.97;;;4.53;;
37049;SDS011;22958;51.232;6.826;2023-07-31T07:13:33;17.27;;;6.00;;
37049;SDS011;22958;51.232;6.826;2023-07-31T07:15:59;15.00;;;5.37;;
37049;SDS011;22958;51.232;6.826;2023-07-31T07:18:24;17.83;;;5.63;;
37049;SDS011;22958;51.232;6.826;2023-07-31T07:20:50;16.77;;;5.63;;
37049;SDS011;22958;51.232;6.826;2023-07-31T07:23:17;14.27;;;5.82;;
37049;SDS011;22958;51.232;6.826;2023-07-31T07:25:43;13.40;;;5.85;;
37049;SDS011;22958;51.232;6.826;2023-07-31T07:28:10;13.48;;;5.90;;
37049;SDS011;22958;51.232;6.826;2023-07-31T07:30:36;14.50;;;4.90;;
37049;SDS011;22958;51.232;6.826;2023-07-31T07:33:01;15.27;;;5.83;;
37049;SDS011;22958;51.232;6.826;2023-07-31T07:35:27;18.83;;;5.30;;
37049;SDS011;22958;51.232;6.826;2023-07-31T07:37:53;16.25;;;5.93;;
37049;SDS011;22958;51.232;6.826;2023-07-31T07:40:19;16.80;;;6.63;;
37049;SDS011;22958;51.232;6.826;2023-07-31T07:42:45;17.95;;;6.05;;
37049;SDS011;22958;51.232;6.826;2023-07-31T07:45:11;16.23;;;5.97;;
37049;SDS011;22958;51.232;6.826;2023-07-31T07:47:38;16.80;;;6.47;;
37049;SDS011;22958;51.232;6.826;2023-07-31T07:50:05;18.48;;;5.80;;
37049;SDS011;22958;51.232;6.826;2023-07-31T07:52:32;19.40;;;6.57;;
37049;SDS011;22958;51.232;6.826;2023-07-31T07:54:57;14.30;;;5.77;;
37049;SDS011;22958;51.232;6.826;2023-07-31T07:57:23;18.27;;;6.67;;
37049;SDS011;22958;51.232;6.826;2023-07-31T07:59:48;20.67;;;6.63;;
37049;SDS011;22958;51.232;6.826;2023-07-31T08:02:14;18.97;;;5.83;;
37049;SDS011;22958;51.232;6.826;2023-07-31T08:04:39;16.50;;;5.27;;
37049;SDS011;22958;51.232;6.826;2023-07-31T08:07:05;16.87;;;5.17;;
37049;SDS011;22958;51.232;6.826;2023-07-31T08:09:31;17.73;;;5.60;;
37049;SDS011;22958;51.232;6.826;2023-07-31T08:11:56;14.77;;;5.30;;
37049;SDS011;22958;51.232;6.826;2023-07-31T08:14:26;15.30;;;6.05;;
37049;SDS011;22958;51.232;6.826;2023-07-31T08:16:52;15.53;;;5.60;;
37049;SDS011;22958;51.232;6.826;2023-07-31T08:19:18;14.77;;;5.87;;
37049;SDS011;22958;51.232;6.826;2023-07-31T08:21:43;17.83;;;5.13;;
37049;SDS011;22958;51.232;6.826;2023-07-31T08:24:09;14.80;;;5.43;;
37049;SDS011;22958;51.232;6.826;2023-07-31T08:26:35;15.43;;;4.93;;
37049;SDS011;22958;51.232;6.826;2023-07-31T08:29:00;13.77;;;5.53;;
37049;SDS011;22958;51.232;6.826;2023-07-31T08:31:26;12.63;;;4.83;;
37049;SDS011;22958;51.232;6.826;2023-07-31T08:33:52;12.37;;;4.90;;
37049;SDS011;22958;51.232;6.826;2023-07-31T08:36:17;17.10;;;6.27;;
37049;SDS011;22958;51.232;6.826;2023-07-31T08:38:43;12.47;;;4.87;;
37049;SDS011;22958;51.232;6.826;2023-07-31T08:41:11;13.15;;;4.57;;
37049;SDS011;22958;51.232;6.826;2023-07-31T08:43:38;13.82;;;4.68;;
37049;SDS011;22958;51.232;6.826;2023-07-31T08:46:04;9.23;;;4.30;;
37049;SDS011;22958;51.232;6.826;2023-07-31T08:48:30;13.43;;;4.63;;
37049;SDS011;22958;51.232;6.826;2023-07-31T08:50:57;12.55;;;4.68;;
37049;SDS011;22958;51.232;6.826;2023-07-31T08:53:23;11.10;;;4.27;;
37049;SDS011;22958;51.232;6.826;2023-07-31T08:55:49;12.73;;;5.03;;
37049;SDS011;22958;51.232;6.826;2023-07-31T08:58:17;13.30;;;5.60;;
37049;SDS011;22958;51.232;6.826;2023-07-31T09:03:14;9.55;;;4.68;;
37049;SDS011;22958;51.232;6.826;2023-07-31T09:05:44;12.95;;;4.80;;
37049;SDS011;22958;51.232;6.826;2023-07-31T09:08:11;10.30;;;5.32;;
37049;SDS011;22958;51.232;6.826;2023-07-31T09:10:44;17.20;;;5.50;;
37049;SDS011;22958;51.232;6.826;2023-07-31T09:13:11;13.27;;;5.15;;
37049;SDS011;22958;51.232;6.826;2023-07-31T09:15:37;13.20;;;5.15;;
37049;SDS011;22958;51.232;6.826;2023-07-31T09:20:33;11.07;;;4.85;;
37049;SDS011;22958;51.232;6.826;2023-07-31T09:23:09;11.27;;;4.68;;
37049;SDS011;22958;51.232;6.826;2023-07-31T09:25:39;10.90;;;4.85;;
37049;SDS011;22958;51.232;6.826;2023-07-31T09:28:09;12.70;;;5.22;;
37049;SDS011;22958;51.232;6.826;2023-07-31T09:33:17;22.95;;;5.28;;
37049;SDS011;22958;51.232;6.826;2023-07-31T09:35:43;11.98;;;5.60;;
37049;SDS011;22958;51.232;6.826;2023-07-31T09:38:10;19.17;;;6.27;;
37049;SDS011;22958;51.232;6.826;2023-07-31T09:40:39;14.18;;;5.80;;
37049;SDS011;22958;51.232;6.826;2023-07-31T09:43:05;14.85;;;5.80;;
37049;SDS011;22958;51.232;6.826;2023-07-31T09:45:36;16.48;;;5.50;;
37049;SDS011;22958;51.232;6.826;2023-07-31T09:48:12;11.65;;;5.72;;
37049;SDS011;22958;51.232;6.826;2023-07-31T09:50:42;12.60;;;6.13;;
37049;SDS011;22958;51.232;6.826;2023-07-31T09:53:09;17.42;;;5.88;;
37049;SDS011;22958;51.232;6.826;2023-07-31T09:55:35;13.77;;;6.90;;
37049;SDS011;22958;51.232;6.826;2023-07-31T09:58:05;17.25;;;5.55;;
37049;SDS011;22958;51.232;6.826;2023-07-31T10:00:32;14.90;;;5.50;;
37049;SDS011;22958;51.232;6.826;2023-07-31T10:02:59;11.70;;;5.93;;
37049;SDS011;22958;51.232;6.826;2023-07-31T10:05:29;12.68;;;5.70;;
37049;SDS011;22958;51.232;6.826;2023-07-31T10:08:04;22.67;;;7.20;;
37049;SDS011;22958;51.232;6.826;2023-07-31T10:10:32;15.93;;;6.40;;
37049;SDS011;22958;51.232;6.826;2023-07-31T10:13:00;21.27;;;6.38;;
37049;SDS011;22958;51.232;6.826;2023-07-31T10:15:26;13.55;;;5.82;;
37049;SDS011;22958;51.232;6.826;2023-07-31T10:20:19;12.68;;;5.50;;
37049;SDS011;22958;51.232;6.826;2023-07-31T10:25:11;12.25;;;5.70;;
37049;SDS011;22958;51.232;6.826;2023-07-31T10:27:40;15.25;;;5.57;;
37049;SDS011;22958;51.232;6.826;2023-07-31T10:30:11;14.68;;;6.07;;
37049;SDS011;22958;51.232;6.826;2023-07-31T10:32:40;17.80;;;5.85;;
37049;SDS011;22958;51.232;6.826;2023-07-31T10:35:08;16.08;;;5.25;;
37049;SDS011;22958;51.232;6.826;2023-07-31T10:37:38;12.18;;;5.20;;
37049;SDS011;22958;51.232;6.826;2023-07-31T10:40:18;12.00;;;4.82;;
37049;SDS011;22958;51.232;6.826;2023-07-31T10:42:49;13.70;;;5.80;;
37049;SDS011;22958;51.232;6.826;2023-07-31T10:48:05;13.15;;;4.60;;
37049;SDS011;22958;51.232;6.826;2023-07-31T10:50:38;16.40;;;4.75;;
37049;SDS011;22958;51.232;6.826;2023-07-31T10:56:02;13.63;;;4.95;;
37049;SDS011;22958;51.232;6.826;2023-07-31T10:58:33;7.60;;;3.88;;
37049;SDS011;22958;51.232;6.826;2023-07-31T11:01:00;8.63;;;3.78;;
37049;SDS011;22958;51.232;6.826;2023-07-31T11:06:36;11.25;;;3.42;;
37049;SDS011;22958;51.232;6.826;2023-07-31T11:09:02;8.67;;;3.53;;
37049;SDS011;22958;51.232;6.826;2023-07-31T11:11:27;8.07;;;2.93;;
37049;SDS011;22958;51.232;6.826;2023-07-31T11:13:54;8.20;;;3.00;;
37049;SDS011;22958;51.232;6.826;2023-07-31T11:16:21;7.25;;;3.05;;
37049;SDS011;22958;51.232;6.826;2023-07-31T11:18:49;8.55;;;2.65;;
37049;SDS011;22958;51.232;6.826;2023-07-31T11:21:19;6.15;;;2.63;;
37049;SDS011;22958;51.232;6.826;2023-07-31T11:23:50;8.88;;;2.80;;
37049;SDS011;22958;51.232;6.826;2023-07-31T11:26:18;10.02;;;2.05;;
37049;SDS011;22958;51.232;6.826;2023-07-31T11:28:46;9.38;;;2.22;;
37049;SDS011;22958;51.232;6.826;2023-07-31T11:31:13;7.40;;;2.67;;
37049;SDS011;22958;51.232;6.826;2023-07-31T11:33:39;6.77;;;2.00;;
37049;SDS011;22958;51.232;6.826;2023-07-31T11:36:04;16.47;;;2.30;;
37049;SDS011;22958;51.232;6.826;2023-07-31T11:38:31;2.90;;;1.77;;
37049;SDS011;22958;51.232;6.826;2023-07-31T11:41:01;5.95;;;1.50;;
37049;SDS011;22958;51.232;6.826;2023-07-31T11:43:28;4.85;;;1.90;;
37049;SDS011;22958;51.232;6.826;2023-07-31T11:45:56;4.38;;;1.73;;
37049;SDS011;22958;51.232;6.826;2023-07-31T11:50:57;4.05;;;1.92;;
37049;SDS011;22958;51.232;6.826;2023-07-31T11:55:58;4.55;;;2.00;;
37049;SDS011;22958;51.232;6.826;2023-07-31T11:58:25;6.25;;;1.80;;
37049;SDS011;22958;51.232;6.826;2023-07-31T12:00:52;5.15;;;1.67;;
37049;SDS011;22958;51.232;6.826;2023-07-31T12:03:18;4.35;;;2.28;;
37049;SDS011;22958;51.232;6.826;2023-07-31T12:05:44;5.40;;;1.90;;
37049;SDS011;22958;51.232;6.826;2023-07-31T12:08:13;4.75;;;1.80;;
37049;SDS011;22958;51.232;6.826;2023-07-31T12:10:38;3.80;;;1.80;;
37049;SDS011;22958;51.232;6.826;2023-07-31T12:13:09;7.32;;;2.25;;
37049;SDS011;22958;51.232;6.826;2023-07-31T12:15:39;3.10;;;1.60;;
37049;SDS011;22958;51.232;6.826;2023-07-31T12:18:06;5.45;;;1.80;;
37049;SDS011;22958;51.232;6.826;2023-07-31T12:20:39;2.53;;;1.42;;
37049;SDS011;22958;51.232;6.826;2023-07-31T12:23:07;3.63;;;2.15;;
37049;SDS011;22958;51.232;6.826;2023-07-31T12:25:33;5.83;;;2.27;;
37049;SDS011;22958;51.232;6.826;2023-07-31T12:28:05;5.70;;;1.95;;
37049;SDS011;22958;51.232;6.826;2023-07-31T12:30:33;6.50;;;2.00;;
37049;SDS011;22958;51.232;6.826;2023-07-31T12:33:03;6.32;;;2.08;;
37049;SDS011;22958;51.232;6.826;2023-07-31T12:35:36;3.72;;;1.92;;
37049;SDS011;22958;51.232;6.826;2023-07-31T12:38:05;3.97;;;2.35;;
37049;SDS011;22958;51.232;6.826;2023-07-31T12:40:30;3.70;;;2.30;;
37049;SDS011;22958;51.232;6.826;2023-07-31T12:42:56;5.87;;;2.80;;
37049;SDS011;22958;51.232;6.826;2023-07-31T12:45:21;5.00;;;2.50;;
37049;SDS011;22958;51.232;6.826;2023-07-31T12:47:48;5.13;;;2.75;;
37049;SDS011;22958;51.232;6.826;2023-07-31T12:50:13;6.03;;;2.80;;
37049;SDS011;22958;51.232;6.826;2023-07-31T12:52:39;5.40;;;2.40;;
37049;SDS011;22958;51.232;6.826;2023-07-31T12:55:05;9.63;;;2.73;;
37049;SDS011;22958;51.232;6.826;2023-07-31T12:57:30;6.75;;;2.50;;
37049;SDS011;22958;51.232;6.826;2023-07-31T12:59:56;7.27;;;2.50;;
37049;SDS011;22958;51.232;6.826;2023-07-31T13:02:21;5.53;;;3.00;;
37049;SDS011;22958;51.232;6.826;2023-07-31T13:04:48;6.93;;;2.63;;
37049;SDS011;22958;51.232;6.826;2023-07-31T13:07:14;5.80;;;2.35;;
37049;SDS011;22958;51.232;6.826;2023-07-31T13:09:40;6.70;;;2.93;;
37049;SDS011;22958;51.232;6.826;2023-07-31T13:12:06;6.93;;;2.83;;
37049;SDS011;22958;51.232;6.826;2023-07-31T13:14:31;5.80;;;2.78;;
37049;SDS011;22958;51.232;6.826;2023-07-31T13:16:57;9.77;;;3.57;;
37049;SDS011;22958;51.232;6.826;2023-07-31T13:19:22;6.03;;;3.27;;
37049;SDS011;22958;51.232;6.826;2023-07-31T13:21:48;11.33;;;3.87;;
37049;SDS011;22958;51.232;6.826;2023-07-31T13:24:13;12.97;;;3.50;;
37049;SDS011;22958;51.232;6.826;2023-07-31T13:26:39;7.13;;;3.70;;
37049;SDS011;22958;51.232;6.826;2023-07-31T13:29:05;7.30;;;3.43;;
37049;SDS011;22958;51.232;6.826;2023-07-31T13:31:30;10.40;;;3.80;;
37049;SDS011;22958;51.232;6.826;2023-07-31T13:33:56;11.30;;;4.07;;
37049;SDS011;22958;51.232;6.826;2023-07-31T13:36:21;11.40;;;3.53;;
37049;SDS011;22958;51.232;6.826;2023-07-31T13:38:47;11.83;;;3.50;;
37049;SDS011;22958;51.232;6.826;2023-07-31T13:41:12;9.60;;;3.97;;
37049;SDS011;22958;51.232;6.826;2023-07-31T13:43:38;10.07;;;3.90;;
37049;SDS011;22958;51.232;6.826;2023-07-31T13:46:03;5.72;;;3.05;;
37049;SDS011;22958;51.232;6.826;2023-07-31T13:48:32;7.28;;;3.08;;
37049;SDS011;22958;51.232;6.826;2023-07-31T13:51:00;6.07;;;3.30;;
37049;SDS011;22958;51.232;6.826;2023-07-31T13:53:25;7.70;;;3.50;;
37049;SDS011;22958;51.232;6.826;2023-07-31T13:55:51;7.70;;;3.67;;
37049;SDS011;22958;51.232;6.826;2023-07-31T13:58:17;12.87;;;3.97;;
37049;SDS011;22958;51.232;6.826;2023-07-31T14:00:43;15.70;;;4.18;;
37049;SDS011;22958;51.232;6.826;2023-07-31T14:03:08;6.93;;;2.90;;
37049;SDS011;22958;51.232;6.826;2023-07-31T14:05:34;6.85;;;3.13;;
37049;SDS011;22958;51.232;6.826;2023-07-31T14:08:00;7.15;;;3.65;;
37049;SDS011;22958;51.232;6.826;2023-07-31T14:10:26;7.30;;;3.72;;
37049;SDS011;22958;51.232;6.826;2023-07-31T14:12:52;8.13;;;3.83;;
37049;SDS011;22958;51.232;6.826;2023-07-31T14:15:17;7.67;;;3.27;;
37049;SDS011;22958;51.232;6.826;2023-07-31T14:17:43;6.65;;;3.83;;
37049;SDS011;22958;51.232;6.826;2023-07-31T14:20:09;6.37;;;3.40;;
37049;SDS011;22958;51.232;6.826;2023-07-31T14:22:35;5.40;;;3.20;;
37049;SDS011;22958;51.232;6.826;2023-07-31T14:25:01;6.40;;;3.30;;
37049;SDS011;22958;51.232;6.826;2023-07-31T14:27:27;7.00;;;3.00;;
37049;SDS011;22958;51.232;6.826;2023-07-31T14:29:52;8.93;;;3.13;;
37049;SDS011;22958;51.232;6.826;2023-07-31T14:32:18;11.13;;;3.70;;
37049;SDS011;22958;51.232;6.826;2023-07-31T14:34:44;9.37;;;3.13;;
37049;SDS011;22958;51.232;6.826;2023-07-31T14:39:35;6.97;;;3.30;;
37049;SDS011;22958;51.232;6.826;2023-07-31T14:42:01;8.43;;;3.53;;
37049;SDS011;22958;51.232;6.826;2023-07-31T14:44:27;6.47;;;3.15;;
37049;SDS011;22958;51.232;6.826;2023-07-31T14:46:52;7.13;;;3.87;;
37049;SDS011;22958;51.232;6.826;2023-07-31T14:49:18;9.73;;;4.20;;
37049;SDS011;22958;51.232;6.826;2023-07-31T14:51:43;8.80;;;3.73;;
37049;SDS011;22958;51.232;6.826;2023-07-31T14:54:09;8.87;;;4.03;;
37049;SDS011;22958;51.232;6.826;2023-07-31T14:56:34;10.70;;;4.50;;
37049;SDS011;22958;51.232;6.826;2023-07-31T14:59:00;7.63;;;3.97;;
37049;SDS011;22958;51.232;6.826;2023-07-31T15:01:26;10.70;;;4.20;;
37049;SDS011;22958;51.232;6.826;2023-07-31T15:03:51;10.73;;;4.87;;
37049;SDS011;22958;51.232;6.826;2023-07-31T15:06:17;12.33;;;4.30;;
37049;SDS011;22958;51.232;6.826;2023-07-31T15:08:42;12.07;;;4.13;;
37049;SDS011;22958;51.232;6.826;2023-07-31T15:11:09;14.63;;;4.37;;
37049;SDS011;22958;51.232;6.826;2023-07-31T15:16:00;8.90;;;4.72;;